Time;durP1;ratioP1;P1;durP2;ratioP2;P2;SDS_P1;SDS_P2;PMS_P1;PMS_P2;Temp;Humidity;BMP_temperature;BMP_pressure;BME280_temperature;BME280_humidity;BME280_pressure;Samples;Min_cycle;Max_cycle;Signal;HPM_P1;HPM_P2
2021/12/27 00:00:51;;;;;;;;;;;0.10;99.90;;;;;;5026445;28;19935;-78
2021/12/27 00:03:17;;;;;;;;;;;0.10;99.90;;;;;;5019492;28;20385;-78
2021/12/27 00:05:43;;;;;;;;;;;0.10;99.90;;;;;;5024650;28;19928;-77
2021/12/27 00:08:08;;;;;;;;;;;0.10;99.90;;;;;;5015045;28;21256;-77
2021/12/27 00:10:34;;;;;;;;;;;0.10;99.90;;;;;;5014567;28;19921;-77
2021/12/27 00:12:59;;;;;;;;;;;0.10;99.90;;;;;;5032611;28;19921;-78
2021/12/27 00:15:25;;;;;;;;;;;0.10;99.90;;;;;;5015044;28;19979;-77
2021/12/27 00:17:51;;;;;;;;;;;0.20;99.90;;;;;;5016401;28;19979;-77
2021/12/27 00:20:18;;;;;;;;;;;0.20;99.90;;;;;;5031029;28;19990;-78
2021/12/27 00:22:45;;;;;;;;;;;0.20;99.90;;;;;;5023749;28;19921;-77
2021/12/27 00:25:11;;;;;;;;;;;0.20;99.90;;;;;;5022172;28;20415;-78
2021/12/27 00:27:36;;;;;;;;;;;0.30;99.90;;;;;;5028575;28;19921;-77
2021/12/27 00:30:02;;;;;;;;;;;0.30;99.90;;;;;;5028495;28;20016;-78
2021/12/27 00:32:28;;;;;;;;;;;0.30;99.90;;;;;;5021980;28;19928;-77
2021/12/27 00:34:53;;;;;;;;;;;0.30;99.90;;;;;;5032391;28;19925;-77
2021/12/27 00:37:19;;;;;;;;;;;0.30;99.90;;;;;;5006905;28;19921;-77
2021/12/27 00:39:44;;;;;;;;;;;0.30;99.90;;;;;;5031497;28;20266;-78
2021/12/27 00:42:10;;;;;;;;;;;0.40;99.90;;;;;;5015017;28;19921;-77
2021/12/27 00:44:35;;;;;;;;;;;0.40;99.90;;;;;;5009933;28;20019;-77
2021/12/27 00:47:01;;;;;;;;;;;0.40;99.90;;;;;;5022603;28;20516;-77
2021/12/27 00:49:26;;;;;;;;;;;0.40;99.90;;;;;;5006593;28;19921;-78
2021/12/27 00:51:52;;;;;;;;;;;0.40;99.90;;;;;;5030741;28;19967;-77
2021/12/27 00:54:18;;;;;;;;;;;0.40;99.90;;;;;;5024297;28;19971;-77
2021/12/27 00:56:43;;;;;;;;;;;0.50;99.90;;;;;;5031964;28;20374;-77
2021/12/27 00:59:09;;;;;;;;;;;0.60;99.90;;;;;;5020538;28;19963;-77
2021/12/27 01:01:34;;;;;;;;;;;0.50;99.90;;;;;;5011466;28;19932;-77
2021/12/27 01:04:00;;;;;;;;;;;0.50;99.90;;;;;;5031725;28;19921;-77
2021/12/27 01:06:26;;;;;;;;;;;0.50;99.90;;;;;;5031281;28;20004;-77
2021/12/27 01:08:52;;;;;;;;;;;0.50;99.90;;;;;;5030650;28;19925;-78
2021/12/27 01:11:27;;;;;;;;;;;0.60;99.90;;;;;;5022426;28;19972;-77
2021/12/27 01:14:04;;;;;;;;;;;0.60;99.90;;;;;;5014942;28;19928;-77
2021/12/27 01:16:30;;;;;;;;;;;0.50;99.90;;;;;;5022471;28;19957;-77
2021/12/27 01:18:55;;;;;;;;;;;0.50;99.90;;;;;;5013369;28;19929;-77
2021/12/27 01:21:22;;;;;;;;;;;0.50;99.90;;;;;;5026352;28;19951;-78
2021/12/27 01:23:48;;;;;;;;;;;0.40;99.90;;;;;;5030300;28;19931;-78
2021/12/27 01:26:13;;;;;;;;;;;0.40;99.90;;;;;;5021533;28;19921;-78
2021/12/27 01:28:40;;;;;;;;;;;0.40;99.90;;;;;;5023305;28;19932;-78
2021/12/27 01:31:05;;;;;;;;;;;0.50;99.90;;;;;;5020853;28;19922;-78
2021/12/27 01:33:31;;;;;;;;;;;0.40;99.90;;;;;;5031116;28;19932;-77
2021/12/27 01:35:57;;;;;;;;;;;0.40;99.90;;;;;;5023995;28;19929;-77
2021/12/27 01:38:23;;;;;;;;;;;0.40;99.90;;;;;;5013553;28;19925;-77
2021/12/27 01:40:51;;;;;;;;;;;0.40;99.90;;;;;;5010628;28;20324;-77
2021/12/27 01:43:22;;;;;;;;;;;0.40;99.90;;;;;;5029972;28;19922;-77
2021/12/27 01:45:52;;;;;;;;;;;0.50;99.90;;;;;;5023476;28;19921;-77
2021/12/27 01:48:21;;;;;;;;;;;0.50;99.90;;;;;;5031190;28;19924;-77
2021/12/27 01:50:48;;;;;;;;;;;0.50;99.90;;;;;;5021041;28;20269;-77
2021/12/27 01:53:17;;;;;;;;;;;0.50;99.90;;;;;;5003368;28;19929;-77
2021/12/27 01:55:43;;;;;;;;;;;0.50;99.90;;;;;;5022367;28;19922;-77
2021/12/27 01:58:10;;;;;;;;;;;0.40;99.90;;;;;;5025954;28;21163;-77
2021/12/27 02:00:38;;;;;;;;;;;0.50;99.90;;;;;;5016791;28;19935;-78
2021/12/27 02:03:04;;;;;;;;;;;0.40;99.90;;;;;;5026962;28;19935;-77
2021/12/27 02:05:29;;;;;;;;;;;0.40;99.90;;;;;;5030993;28;19921;-77
2021/12/27 02:07:55;;;;;;;;;;;0.50;99.90;;;;;;5030236;28;19921;-77
2021/12/27 02:10:21;;;;;;;;;;;0.50;99.90;;;;;;5029522;28;19921;-77
2021/12/27 02:12:46;;;;;;;;;;;0.40;99.90;;;;;;5013998;28;19921;-77
2021/12/27 02:15:12;;;;;;;;;;;0.50;99.90;;;;;;5029829;28;19925;-77
2021/12/27 02:17:39;;;;;;;;;;;0.50;99.90;;;;;;5004468;28;20293;-77
2021/12/27 02:20:09;;;;;;;;;;;0.50;99.90;;;;;;5016923;28;20679;-78
2021/12/27 02:22:36;;;;;;;;;;;0.60;99.90;;;;;;5010119;28;20293;-78
2021/12/27 02:25:06;;;;;;;;;;;0.60;99.90;;;;;;5021668;28;20367;-77
2021/12/27 02:27:32;;;;;;;;;;;0.50;99.90;;;;;;5023663;28;19974;-77
2021/12/27 02:29:57;;;;;;;;;;;0.50;99.90;;;;;;5013015;28;19925;-77
2021/12/27 02:32:23;;;;;;;;;;;0.60;99.90;;;;;;5006614;28;20297;-78
2021/12/27 02:34:48;;;;;;;;;;;0.50;99.90;;;;;;5001620;28;20008;-77
2021/12/27 02:37:13;;;;;;;;;;;0.60;99.90;;;;;;5024588;28;19936;-77
2021/12/27 02:39:39;;;;;;;;;;;0.50;99.90;;;;;;5025077;28;19921;-78
2021/12/27 02:42:05;;;;;;;;;;;0.50;99.90;;;;;;5020777;28;20491;-77
2021/12/27 02:44:30;;;;;;;;;;;0.50;99.90;;;;;;5022131;28;19921;-77
2021/12/27 02:46:56;;;;;;;;;;;0.50;99.90;;;;;;5029492;28;20381;-77
2021/12/27 02:49:21;;;;;;;;;;;0.40;99.90;;;;;;5022981;28;19983;-77
2021/12/27 02:51:46;;;;;;;;;;;0.50;99.90;;;;;;5005238;28;19926;-77
2021/12/27 02:54:12;;;;;;;;;;;0.50;99.90;;;;;;5028317;28;20369;-78
2021/12/27 02:56:37;;;;;;;;;;;0.50;99.90;;;;;;5004960;28;19921;-78
2021/12/27 02:59:03;;;;;;;;;;;0.50;99.90;;;;;;5012327;28;20378;-77
2021/12/27 03:01:30;;;;;;;;;;;0.50;99.90;;;;;;5001832;28;19969;-78
2021/12/27 03:03:55;;;;;;;;;;;0.40;99.90;;;;;;5017894;28;19968;-77
2021/12/27 03:06:21;;;;;;;;;;;0.50;99.90;;;;;;5030281;28;19980;-78
2021/12/27 03:08:47;;;;;;;;;;;0.50;99.90;;;;;;5027533;28;19921;-78
2021/12/27 03:11:12;;;;;;;;;;;0.50;99.90;;;;;;5008521;28;19963;-77
2021/12/27 03:13:39;;;;;;;;;;;0.40;99.90;;;;;;5022334;28;19927;-78
2021/12/27 03:16:06;;;;;;;;;;;0.40;99.90;;;;;;5021939;28;19921;-78
2021/12/27 03:18:33;;;;;;;;;;;0.40;99.90;;;;;;5027849;28;19976;-78
2021/12/27 03:20:58;;;;;;;;;;;0.40;99.90;;;;;;5030152;28;20296;-78
2021/12/27 03:23:24;;;;;;;;;;;0.40;99.90;;;;;;5006911;28;20005;-77
2021/12/27 03:25:50;;;;;;;;;;;0.40;99.90;;;;;;5029420;28;19979;-77
2021/12/27 03:28:16;;;;;;;;;;;0.50;99.90;;;;;;5013497;28;19928;-78
2021/12/27 03:30:42;;;;;;;;;;;0.50;99.90;;;;;;5031049;28;19929;-77
2021/12/27 03:33:08;;;;;;;;;;;0.50;99.90;;;;;;5024186;28;19928;-77
2021/12/27 03:35:39;;;;;;;;;;;0.50;99.90;;;;;;5032082;28;19932;-78
2021/12/27 03:38:06;;;;;;;;;;;0.50;99.90;;;;;;5009086;28;19972;-77
2021/12/27 03:40:32;;;;;;;;;;;0.50;99.90;;;;;;5022773;28;19929;-78
2021/12/27 03:42:58;;;;;;;;;;;0.50;99.90;;;;;;5033409;28;19928;-77
2021/12/27 03:45:41;;;;;;;;;;;0.50;99.90;;;;;;5024241;28;19922;-77
2021/12/27 03:48:08;;;;;;;;;;;0.60;99.90;;;;;;5016951;28;19956;-78
2021/12/27 03:50:34;;;;;;;;;;;0.60;99.90;;;;;;5026529;28;19921;-77
2021/12/27 03:52:59;;;;;;;;;;;0.70;99.90;;;;;;5031663;28;19921;-77
2021/12/27 03:55:25;;;;;;;;;;;0.60;99.90;;;;;;5022432;28;19921;-77
2021/12/27 03:58:04;;;;;;;;;;;0.70;99.90;;;;;;5016095;28;20417;-77
2021/12/27 04:00:44;;;;;;;;;;;0.70;99.90;;;;;;5032181;28;20308;-77
2021/12/27 04:03:10;;;;;;;;;;;0.70;99.90;;;;;;5024126;28;19944;-78
2021/12/27 04:05:35;;;;;;;;;;;0.60;99.90;;;;;;5031049;28;19921;-77
2021/12/27 04:08:04;;;;;;;;;;;0.60;99.90;;;;;;5033379;28;20174;-77
2021/12/27 04:10:29;;;;;;;;;;;0.60;99.90;;;;;;5024507;28;20528;-77
2021/12/27 04:12:55;;;;;;;;;;;0.60;99.90;;;;;;5020292;28;19952;-77
2021/12/27 04:15:21;;;;;;;;;;;0.60;99.90;;;;;;5021907;28;19921;-77
2021/12/27 04:17:47;;;;;;;;;;;0.60;99.90;;;;;;5016641;28;20007;-77
2021/12/27 04:20:13;;;;;;;;;;;0.60;99.90;;;;;;5031233;28;19948;-78
2021/12/27 04:22:38;;;;;;;;;;;0.60;99.90;;;;;;5023299;28;19928;-78
2021/12/27 04:25:04;;;;;;;;;;;0.50;99.90;;;;;;5023131;28;19921;-77
2021/12/27 04:27:29;;;;;;;;;;;0.50;99.90;;;;;;5010003;28;19929;-77
2021/12/27 04:29:55;;;;;;;;;;;0.60;99.90;;;;;;5026319;28;19972;-77
2021/12/27 04:32:20;;;;;;;;;;;0.50;99.90;;;;;;5016028;28;19921;-77
2021/12/27 04:34:46;;;;;;;;;;;0.60;99.90;;;;;;5014867;28;19929;-77
2021/12/27 04:37:11;;;;;;;;;;;0.60;99.90;;;;;;5023588;28;19925;-77
2021/12/27 04:39:37;;;;;;;;;;;0.60;99.90;;;;;;5011550;28;20385;-77
2021/12/27 04:42:04;;;;;;;;;;;0.60;99.90;;;;;;5031305;28;19948;-77
2021/12/27 04:44:30;;;;;;;;;;;0.60;99.90;;;;;;5015197;28;19921;-77
2021/12/27 04:46:55;;;;;;;;;;;0.60;99.90;;;;;;5031837;28;19936;-77
2021/12/27 04:49:21;;;;;;;;;;;0.60;99.90;;;;;;5032067;28;19975;-78
2021/12/27 04:51:46;;;;;;;;;;;0.60;99.90;;;;;;5031005;28;19921;-77
2021/12/27 04:54:12;;;;;;;;;;;0.70;99.90;;;;;;5015039;28;19933;-77
2021/12/27 04:56:37;;;;;;;;;;;0.60;99.90;;;;;;5031229;28;19921;-77
2021/12/27 04:59:03;;;;;;;;;;;0.60;99.90;;;;;;5031066;28;20309;-78
2021/12/27 05:01:28;;;;;;;;;;;0.60;99.90;;;;;;5026768;28;19929;-78
2021/12/27 05:03:53;;;;;;;;;;;0.60;99.90;;;;;;5011343;28;19928;-77
2021/12/27 05:06:19;;;;;;;;;;;0.60;99.90;;;;;;5021509;28;19944;-77
2021/12/27 05:08:45;;;;;;;;;;;0.60;99.90;;;;;;5030687;28;20385;-77
2021/12/27 05:11:10;;;;;;;;;;;0.60;99.90;;;;;;5023661;28;19921;-77
2021/12/27 05:13:36;;;;;;;;;;;0.60;99.90;;;;;;5014724;28;19922;-78
2021/12/27 05:16:02;;;;;;;;;;;0.60;99.90;;;;;;5020190;28;19984;-78
2021/12/27 05:18:28;;;;;;;;;;;0.60;99.90;;;;;;5014488;28;20008;-78
2021/12/27 05:20:53;;;;;;;;;;;0.60;99.90;;;;;;5017397;28;19926;-78
2021/12/27 05:23:19;;;;;;;;;;;0.60;99.90;;;;;;5021411;28;19921;-77
2021/12/27 05:25:44;;;;;;;;;;;0.60;99.90;;;;;;5031640;28;19921;-77
2021/12/27 05:28:10;;;;;;;;;;;0.70;99.90;;;;;;5022512;28;19925;-79
2021/12/27 05:30:36;;;;;;;;;;;0.70;99.90;;;;;;5030905;28;20377;-77
2021/12/27 05:33:02;;;;;;;;;;;0.70;99.90;;;;;;5023418;28;19976;-78
2021/12/27 05:35:28;;;;;;;;;;;0.70;99.90;;;;;;5027027;28;19932;-79
2021/12/27 05:37:53;;;;;;;;;;;0.70;99.90;;;;;;5025673;28;19921;-78
2021/12/27 05:40:20;;;;;;;;;;;0.70;99.90;;;;;;5017247;28;19932;-78
2021/12/27 05:42:46;;;;;;;;;;;0.70;99.90;;;;;;5030106;28;19925;-78
2021/12/27 05:45:11;;;;;;;;;;;0.70;99.90;;;;;;5027878;28;19971;-78
2021/12/27 05:47:37;;;;;;;;;;;0.70;99.90;;;;;;5029221;28;19947;-78
2021/12/27 05:50:06;;;;;;;;;;;0.70;99.90;;;;;;5026296;28;19983;-78
2021/12/27 05:52:31;;;;;;;;;;;0.70;99.90;;;;;;5023099;28;20312;-77
2021/12/27 05:54:57;;;;;;;;;;;0.60;99.90;;;;;;5014260;28;19921;-78
2021/12/27 05:57:22;;;;;;;;;;;0.60;99.90;;;;;;5026302;28;20320;-77
2021/12/27 05:59:48;;;;;;;;;;;0.60;99.90;;;;;;5028616;28;19921;-78
2021/12/27 06:02:13;;;;;;;;;;;0.60;99.90;;;;;;5008799;28;19931;-79
2021/12/27 06:04:39;;;;;;;;;;;0.60;99.90;;;;;;5010044;28;20377;-75
2021/12/27 06:07:04;;;;;;;;;;;0.60;99.90;;;;;;5010159;28;19921;-76
2021/12/27 06:09:29;;;;;;;;;;;0.70;99.90;;;;;;5030770;28;19929;-77
2021/12/27 06:11:55;;;;;;;;;;;0.60;99.90;;;;;;5030354;28;19921;-76
2021/12/27 06:14:20;;;;;;;;;;;0.70;99.90;;;;;;5029911;28;20011;-74
2021/12/27 06:16:46;;;;;;;;;;;0.70;99.90;;;;;;5030234;28;19920;-75
2021/12/27 06:19:11;;;;;;;;;;;0.60;99.90;;;;;;5029140;28;19925;-79
2021/12/27 06:21:37;;;;;;;;;;;0.70;99.90;;;;;;5030472;28;19925;-80
2021/12/27 06:24:03;;;;;;;;;;;0.80;99.90;;;;;;5013967;28;20286;-79
2021/12/27 06:26:28;;;;;;;;;;;0.80;99.90;;;;;;5014221;28;19928;-79
2021/12/27 06:28:54;;;;;;;;;;;0.70;99.90;;;;;;5031001;28;19928;-79
2021/12/27 06:31:20;;;;;;;;;;;0.70;99.90;;;;;;5030512;28;19928;-80
2021/12/27 06:33:46;;;;;;;;;;;0.70;99.90;;;;;;5030073;28;19924;-80
2021/12/27 06:36:11;;;;;;;;;;;0.80;99.90;;;;;;5014101;28;20347;-79
2021/12/27 06:38:36;;;;;;;;;;;0.80;99.90;;;;;;5014035;28;19921;-80
2021/12/27 06:41:02;;;;;;;;;;;0.70;99.90;;;;;;5013141;28;20373;-81
2021/12/27 06:43:30;;;;;;;;;;;0.70;99.90;;;;;;5013548;28;19979;-81
2021/12/27 06:45:56;;;;;;;;;;;0.70;99.90;;;;;;5030496;28;20023;-81
2021/12/27 06:48:21;;;;;;;;;;;0.70;99.90;;;;;;5030964;28;19982;-82
2021/12/27 06:50:47;;;;;;;;;;;0.70;99.90;;;;;;5014081;28;19928;-82
2021/12/27 06:53:12;;;;;;;;;;;0.80;99.90;;;;;;5014032;28;19921;-82
2021/12/27 06:55:38;;;;;;;;;;;0.70;99.90;;;;;;5030553;28;20012;-82
2021/12/27 06:58:03;;;;;;;;;;;0.90;99.90;;;;;;5013743;28;19980;-81
2021/12/27 07:00:29;;;;;;;;;;;0.90;99.90;;;;;;5033755;28;19925;-81
2021/12/27 07:02:54;;;;;;;;;;;0.80;99.90;;;;;;5018113;28;20329;-85
2021/12/27 07:05:20;;;;;;;;;;;0.80;99.90;;;;;;5035206;28;19921;-82
2021/12/27 07:07:45;;;;;;;;;;;0.90;99.90;;;;;;5034634;28;19928;-85
2021/12/27 07:10:13;;;;;;;;;;;0.90;99.90;;;;;;5018012;28;19972;-81
2021/12/27 07:12:39;;;;;;;;;;;0.90;99.90;;;;;;5016109;28;19974;-81
2021/12/27 07:15:05;;;;;;;;;;;0.90;99.90;;;;;;5012002;28;19921;-80
2021/12/27 07:17:30;;;;;;;;;;;0.90;99.90;;;;;;5034079;28;19921;-80
2021/12/27 07:19:56;;;;;;;;;;;0.90;99.90;;;;;;5004607;28;19929;-80
2021/12/27 07:22:22;;;;;;;;;;;0.90;99.90;;;;;;5033012;28;19991;-80
2021/12/27 07:24:47;;;;;;;;;;;0.90;99.90;;;;;;5017166;28;20388;-79
2021/12/27 07:27:13;;;;;;;;;;;0.90;99.90;;;;;;5033960;28;19969;-79
2021/12/27 07:29:38;;;;;;;;;;;0.90;99.90;;;;;;5033487;28;19928;-79
2021/12/27 07:32:04;;;;;;;;;;;0.90;99.90;;;;;;5034414;28;19967;-79
2021/12/27 07:34:29;;;;;;;;;;;0.90;99.90;;;;;;5033772;28;19944;-79
2021/12/27 07:36:55;;;;;;;;;;;0.90;99.90;;;;;;5033671;28;19953;-81
2021/12/27 07:39:21;;;;;;;;;;;0.90;99.90;;;;;;5032211;28;19921;-79
2021/12/27 07:41:47;;;;;;;;;;;1.00;99.90;;;;;;5033928;28;19932;-79
2021/12/27 07:44:12;;;;;;;;;;;1.00;99.90;;;;;;5017413;28;19961;-79
2021/12/27 07:46:42;;;;;;;;;;;0.90;99.90;;;;;;5033782;28;19927;-79
2021/12/27 07:49:08;;;;;;;;;;;1.00;99.90;;;;;;5017157;28;19921;-80
2021/12/27 07:51:34;;;;;;;;;;;1.00;99.90;;;;;;5034202;28;19928;-79
2021/12/27 07:53:59;;;;;;;;;;;1.00;99.90;;;;;;5017246;28;19921;-79
2021/12/27 07:56:25;;;;;;;;;;;1.00;99.90;;;;;;5017338;28;19924;-79
2021/12/27 07:58:50;;;;;;;;;;;1.00;99.90;;;;;;5034042;28;20373;-79
2021/12/27 08:01:16;;;;;;;;;;;1.00;99.90;;;;;;5034306;28;19929;-80
2021/12/27 08:03:42;;;;;;;;;;;1.00;99.90;;;;;;5033689;28;19929;-80
2021/12/27 08:06:07;;;;;;;;;;;1.00;99.90;;;;;;5033759;28;19928;-79
2021/12/27 08:08:33;;;;;;;;;;;1.00;99.90;;;;;;5017593;28;19972;-79
2021/12/27 08:10:58;;;;;;;;;;;1.00;99.90;;;;;;5017632;28;19991;-80
2021/12/27 08:13:23;;;;;;;;;;;1.00;99.90;;;;;;5033997;28;19921;-80
2021/12/27 08:15:49;;;;;;;;;;;1.00;99.90;;;;;;5034602;28;20443;-80
2021/12/27 08:18:14;;;;;;;;;;;1.00;99.90;;;;;;5017810;28;19921;-80
2021/12/27 08:20:40;;;;;;;;;;;1.00;99.90;;;;;;5017751;28;19932;-81
2021/12/27 08:23:05;;;;;;;;;;;1.10;99.90;;;;;;5033758;28;19921;-80
2021/12/27 08:25:31;;;;;;;;;;;1.10;99.90;;;;;;5033998;28;19925;-80
2021/12/27 08:27:56;;;;;;;;;;;1.10;99.90;;;;;;5033922;28;19921;-80
2021/12/27 08:30:22;;;;;;;;;;;1.10;99.90;;;;;;5017596;28;19921;-79
2021/12/27 08:32:48;;;;;;;;;;;1.20;99.90;;;;;;5017179;28;20447;-79
2021/12/27 08:35:15;;;;;;;;;;;1.20;99.90;;;;;;5033877;28;20431;-80
2021/12/27 08:37:41;;;;;;;;;;;1.20;99.90;;;;;;5017260;28;19928;-79
2021/12/27 08:40:07;;;;;;;;;;;1.20;99.90;;;;;;5033783;28;19921;-79
2021/12/27 08:42:32;;;;;;;;;;;1.20;99.90;;;;;;5016853;28;19925;-82
2021/12/27 08:44:58;;;;;;;;;;;1.20;99.90;;;;;;5016973;28;19925;-79
2021/12/27 08:47:23;;;;;;;;;;;1.20;99.90;;;;;;5033793;28;19928;-80
2021/12/27 08:49:49;;;;;;;;;;;1.30;99.90;;;;;;5017052;28;19928;-80
2021/12/27 08:52:14;;;;;;;;;;;1.30;99.90;;;;;;5033324;28;19971;-79
2021/12/27 08:54:40;;;;;;;;;;;1.30;99.90;;;;;;5033631;28;19928;-80
2021/12/27 08:57:09;;;;;;;;;;;1.30;99.90;;;;;;5017345;28;19929;-80
2021/12/27 08:59:35;;;;;;;;;;;1.30;99.90;;;;;;5017752;28;20373;-79
2021/12/27 09:02:00;;;;;;;;;;;1.30;99.90;;;;;;5016905;28;19925;-79
2021/12/27 09:04:26;;;;;;;;;;;1.30;99.90;;;;;;5033627;28;19927;-80
2021/12/27 09:06:51;;;;;;;;;;;1.30;99.90;;;;;;5017136;28;19925;-80
2021/12/27 09:09:17;;;;;;;;;;;1.40;99.90;;;;;;5017139;28;19921;-79
2021/12/27 09:11:43;;;;;;;;;;;1.40;99.90;;;;;;5017104;28;19921;-79
2021/12/27 09:14:09;;;;;;;;;;;1.40;99.90;;;;;;5033242;28;20404;-79
2021/12/27 09:16:34;;;;;;;;;;;1.50;99.90;;;;;;5017361;28;19921;-79
2021/12/27 09:19:00;;;;;;;;;;;1.50;99.90;;;;;;5033799;28;19921;-80
2021/12/27 09:21:25;;;;;;;;;;;1.50;99.90;;;;;;5016085;28;19935;-79
2021/12/27 09:23:51;;;;;;;;;;;1.50;99.90;;;;;;5033332;28;19972;-79
2021/12/27 09:26:17;;;;;;;;;;;1.50;99.90;;;;;;5033326;28;19921;-79
2021/12/27 09:28:42;;;;;;;;;;;1.60;99.90;;;;;;5033627;28;19928;-79
2021/12/27 09:31:07;;;;;;;;;;;1.60;99.90;;;;;;5033624;28;19974;-79
2021/12/27 09:33:33;;;;;;;;;;;1.60;99.90;;;;;;5033433;28;19929;-79
2021/12/27 09:35:59;;;;;;;;;;;1.70;99.90;;;;;;5032993;28;20012;-79
2021/12/27 09:38:24;;;;;;;;;;;1.70;99.90;;;;;;5032761;28;19921;-80
2021/12/27 09:40:49;;;;;;;;;;;1.70;99.90;;;;;;5016951;28;19926;-80
2021/12/27 09:43:15;;;;;;;;;;;1.80;99.90;;;;;;5033290;28;19921;-79
2021/12/27 09:45:41;;;;;;;;;;;1.80;99.90;;;;;;5016637;28;20397;-79
2021/12/27 09:48:06;;;;;;;;;;;1.90;99.90;;;;;;5033553;28;19925;-80
2021/12/27 09:50:35;;;;;;;;;;;2.00;99.90;;;;;;5016591;28;19944;-79
2021/12/27 09:53:01;;;;;;;;;;;2.00;99.90;;;;;;5016578;28;20270;-79
2021/12/27 09:55:27;;;;;;;;;;;2.00;99.90;;;;;;5032549;28;19952;-79
2021/12/27 09:57:52;;;;;;;;;;;2.00;99.90;;;;;;5033569;28;20329;-79
2021/12/27 10:00:18;;;;;;;;;;;2.10;99.90;;;;;;5032640;28;19967;-79
2021/12/27 10:02:48;;;;;;;;;;;2.10;99.90;;;;;;5016623;28;20024;-79
2021/12/27 10:05:13;;;;;;;;;;;2.20;99.90;;;;;;5016708;28;19960;-80
2021/12/27 10:07:41;;;;;;;;;;;2.20;99.90;;;;;;5033301;28;19936;-80
2021/12/27 10:10:07;;;;;;;;;;;2.20;99.90;;;;;;5033374;28;19921;-79
2021/12/27 10:12:33;;;;;;;;;;;2.30;99.90;;;;;;5033377;28;19925;-82
2021/12/27 10:15:00;;;;;;;;;;;2.30;99.90;;;;;;5033066;28;20267;-79
2021/12/27 10:17:31;;;;;;;;;;;2.40;99.90;;;;;;5016741;28;20024;-80
2021/12/27 10:20:07;;;;;;;;;;;2.50;99.90;;;;;;5016748;28;19921;-79
2021/12/27 10:22:36;;;;;;;;;;;2.60;99.90;;;;;;5016125;28;19921;-79
2021/12/27 10:25:01;;;;;;;;;;;2.80;99.90;;;;;;5033004;28;20408;-80
2021/12/27 10:27:33;;;;;;;;;;;2.80;99.90;;;;;;5016276;28;19921;-80
2021/12/27 10:30:07;;;;;;;;;;;2.70;99.90;;;;;;5016724;28;19921;-79
2021/12/27 10:32:33;;;;;;;;;;;2.70;99.90;;;;;;5016562;28;19932;-80
2021/12/27 10:34:58;;;;;;;;;;;2.80;99.90;;;;;;5020681;28;20316;-80
2021/12/27 10:37:25;;;;;;;;;;;2.80;99.90;;;;;;5020041;28;19921;-79
2021/12/27 10:39:50;;;;;;;;;;;2.80;99.90;;;;;;5036424;28;19928;-79
2021/12/27 10:42:18;;;;;;;;;;;2.90;99.90;;;;;;5036384;28;19933;-79
2021/12/27 10:44:44;;;;;;;;;;;2.90;99.90;;;;;;5036502;28;19921;-80
2021/12/27 10:47:45;;;;;;;;;;;2.90;99.90;;;;;;5019989;28;19928;-79
2021/12/27 10:50:18;;;;;;;;;;;2.80;99.90;;;;;;4979429;28;20002;-79
2021/12/27 10:52:45;;;;;;;;;;;2.80;99.90;;;;;;5029739;28;19928;-81
2021/12/27 10:55:12;;;;;;;;;;;2.80;99.90;;;;;;5019561;28;19928;-80
2021/12/27 10:57:37;;;;;;;;;;;2.80;99.90;;;;;;5019095;28;19921;-79
2021/12/27 11:00:16;;;;;;;;;;;2.70;99.90;;;;;;5036444;28;20301;-80
2021/12/27 11:02:42;;;;;;;;;;;2.70;99.90;;;;;;5019688;28;19959;-79
2021/12/27 11:05:11;;;;;;;;;;;2.70;99.90;;;;;;5019858;28;20259;-79
2021/12/27 11:07:39;;;;;;;;;;;2.70;99.90;;;;;;5035862;28;19928;-79
2021/12/27 11:10:05;;;;;;;;;;;2.70;99.90;;;;;;5019196;28;19928;-81
2021/12/27 11:12:30;;;;;;;;;;;2.70;99.90;;;;;;5019229;28;19921;-80
2021/12/27 11:14:56;;;;;;;;;;;2.70;99.90;;;;;;5035660;28;19921;-80
2021/12/27 11:17:21;;;;;;;;;;;2.70;99.90;;;;;;5019314;28;19932;-80
2021/12/27 11:19:47;;;;;;;;;;;2.80;99.90;;;;;;5019338;28;19928;-80
2021/12/27 11:22:12;;;;;;;;;;;2.80;99.90;;;;;;5035974;28;20325;-80
2021/12/27 11:24:38;;;;;;;;;;;2.90;99.90;;;;;;5019304;28;19925;-80
2021/12/27 11:27:09;;;;;;;;;;;3.00;99.90;;;;;;5019482;28;19937;-80
2021/12/27 11:29:35;;;;;;;;;;;3.10;99.90;;;;;;5019330;28;20423;-80
2021/12/27 11:32:11;;;;;;;;;;;3.10;99.90;;;;;;5018720;28;19991;-80
2021/12/27 11:34:56;;;;;;;;;;;3.10;99.90;;;;;;5019057;28;20262;-79
2021/12/27 11:37:33;;;;;;;;;;;3.20;99.90;;;;;;5019434;28;19932;-80
2021/12/27 11:40:06;;;;;;;;;;;3.10;99.90;;;;;;5036115;28;20003;-80
2021/12/27 11:42:51;;;;;;;;;;;3.10;99.90;;;;;;5019213;28;19940;-79
2021/12/27 11:45:35;;;;;;;;;;;3.20;99.90;;;;;;5018599;28;19928;-79
2021/12/27 11:48:14;;;;;;;;;;;3.20;99.90;;;;;;5018891;28;20297;-80
2021/12/27 11:50:58;;;;;;;;;;;3.40;99.90;;;;;;5035010;28;20460;-80
2021/12/27 11:53:33;;;;;;;;;;;3.50;99.90;;;;;;5018074;28;19921;-80
2021/12/27 11:56:00;;;;;;;;;;;3.50;99.90;;;;;;5018325;28;20357;-79
2021/12/27 11:58:32;;;;;;;;;;;3.50;99.90;;;;;;5017585;28;19921;-79
2021/12/27 12:00:58;;;;;;;;;;;3.60;99.90;;;;;;5033457;28;19976;-79
2021/12/27 12:03:34;;;;;;;;;;;3.70;99.90;;;;;;5033250;28;19986;-80
2021/12/27 12:06:00;;;;;;;;;;;3.70;99.90;;;;;;5016816;28;19928;-81
2021/12/27 12:08:37;;;;;;;;;;;3.80;99.90;;;;;;5033521;28;19924;-79
2021/12/27 12:11:06;;;;;;;;;;;3.80;99.90;;;;;;5017016;28;20401;-79
2021/12/27 12:13:42;;;;;;;;;;;3.70;99.90;;;;;;5033214;28;19925;-79
2021/12/27 12:16:09;;;;;;;;;;;3.80;99.90;;;;;;5033400;28;19921;-79
2021/12/27 12:18:41;;;;;;;;;;;3.90;99.90;;;;;;5016724;28;19965;-79
2021/12/27 12:21:07;;;;;;;;;;;4.00;99.90;;;;;;5032945;28;19925;-79
2021/12/27 12:23:36;;;;;;;;;;;4.00;99.90;;;;;;5016111;28;19921;-81
2021/12/27 12:26:03;;;;;;;;;;;4.20;99.90;;;;;;5016266;28;19937;-79
2021/12/27 12:28:29;;;;;;;;;;;4.40;99.90;;;;;;5032780;28;19925;-80
2021/12/27 12:30:55;;;;;;;;;;;4.80;99.90;;;;;;5032825;28;19979;-80
2021/12/27 12:33:22;;;;;;;;;;;5.00;99.90;;;;;;5032827;28;20363;-79
2021/12/27 12:35:56;;;;;;;;;;;5.10;99.90;;;;;;5016545;28;19928;-79
2021/12/27 12:38:27;;;;;;;;;;;5.00;99.90;;;;;;5016316;28;20004;-80
2021/12/27 12:40:57;;;;;;;;;;;4.90;99.90;;;;;;5032607;28;19929;-79
2021/12/27 12:43:34;;;;;;;;;;;4.80;99.90;;;;;;5032367;28;19921;-79
2021/12/27 12:46:09;;;;;;;;;;;4.60;99.90;;;;;;5016030;28;19921;-80
2021/12/27 12:48:35;;;;;;;;;;;4.50;99.90;;;;;;5016404;28;19920;-80
2021/12/27 12:51:00;;;;;;;;;;;4.40;99.90;;;;;;5032761;28;19921;-79
2021/12/27 12:53:30;;;;;;;;;;;4.30;99.90;;;;;;5015732;28;20373;-80
2021/12/27 12:56:00;;;;;;;;;;;4.30;99.90;;;;;;5032105;28;20333;-79
2021/12/27 12:58:33;;;;;;;;;;;4.20;99.90;;;;;;5015511;28;19921;-80
2021/12/27 13:01:08;;;;;;;;;;;4.20;99.90;;;;;;5032172;28;19925;-80
2021/12/27 13:03:34;;;;;;;;;;;4.20;99.90;;;;;;5015820;28;20012;-80
2021/12/27 13:06:03;;;;;;;;;;;4.20;99.90;;;;;;5015591;28;19972;-80
2021/12/27 13:08:29;;;;;;;;;;;4.20;99.90;;;;;;5015950;28;20032;-79
2021/12/27 13:10:55;;;;;;;;;;;4.20;99.90;;;;;;5015561;28;20001;-79
2021/12/27 13:13:21;;;;;;;;;;;4.30;99.90;;;;;;5015702;28;19921;-79
2021/12/27 13:15:51;;;;;;;;;;;4.30;99.90;;;;;;5015418;28;19960;-79
2021/12/27 13:18:17;;;;;;;;;;;4.30;99.90;;;;;;5031871;28;19924;-79
2021/12/27 13:20:44;;;;;;;;;;;4.20;99.90;;;;;;5032052;28;19925;-79
2021/12/27 13:23:13;;;;;;;;;;;4.30;99.90;;;;;;5015156;28;19928;-79
2021/12/27 13:25:40;;;;;;;;;;;4.20;99.90;;;;;;5031713;28;19970;-79
2021/12/27 13:28:17;;;;;;;;;;;4.20;99.90;;;;;;5031826;28;19928;-79
2021/12/27 13:30:44;;;;;;;;;;;4.20;99.90;;;;;;5031752;28;19921;-80
2021/12/27 13:33:10;;;;;;;;;;;4.20;99.90;;;;;;5031895;28;20039;-79
2021/12/27 13:35:35;;;;;;;;;;;4.00;99.90;;;;;;5031443;28;20008;-79
2021/12/27 13:38:01;;;;;;;;;;;4.00;99.90;;;;;;5015551;28;20018;-79
2021/12/27 13:40:26;;;;;;;;;;;4.00;99.90;;;;;;5015080;28;19925;-81
2021/12/27 13:43:00;;;;;;;;;;;3.90;99.90;;;;;;5014922;28;19991;-79
2021/12/27 13:45:25;;;;;;;;;;;3.90;99.90;;;;;;5031340;28;19928;-79
2021/12/27 13:47:54;;;;;;;;;;;3.80;99.90;;;;;;5031467;28;20015;-80
2021/12/27 13:50:29;;;;;;;;;;;3.80;99.90;;;;;;5015303;28;19986;-79
2021/12/27 13:52:56;;;;;;;;;;;3.80;99.90;;;;;;5014670;28;19921;-80
2021/12/27 13:55:22;;;;;;;;;;;3.80;99.90;;;;;;5014959;28;19929;-79
2021/12/27 13:57:47;;;;;;;;;;;3.70;99.90;;;;;;5031219;28;20011;-80
2021/12/27 14:00:14;;;;;;;;;;;3.70;99.90;;;;;;5014657;28;19929;-81
2021/12/27 14:02:41;;;;;;;;;;;3.60;99.90;;;;;;5030858;28;19921;-79
2021/12/27 14:05:07;;;;;;;;;;;3.60;99.90;;;;;;5031213;28;19921;-79
2021/12/27 14:07:33;;;;;;;;;;;3.50;99.90;;;;;;5031103;28;19958;-80
2021/12/27 14:09:58;;;;;;;;;;;3.60;99.90;;;;;;5031024;28;19969;-80
2021/12/27 14:12:26;;;;;;;;;;;3.50;99.90;;;;;;5030974;28;19921;-79
2021/12/27 14:14:51;;;;;;;;;;;3.60;99.90;;;;;;5014428;28;19926;-81
2021/12/27 14:17:23;;;;;;;;;;;3.60;99.90;;;;;;5014911;28;19921;-79
2021/12/27 14:20:01;;;;;;;;;;;3.60;99.90;;;;;;5030985;28;19922;-79
2021/12/27 14:22:37;;;;;;;;;;;3.60;99.90;;;;;;5014468;28;19932;-79
2021/12/27 14:25:03;;;;;;;;;;;3.70;99.90;;;;;;5030796;28;19933;-79
2021/12/27 14:27:40;;;;;;;;;;;3.70;99.90;;;;;;5014452;28;20004;-79
2021/12/27 14:30:12;;;;;;;;;;;3.70;99.90;;;;;;5014399;28;19960;-79